sensor_id;sensor_type;location;lat;lon;timestamp;temperature;humidity
70534;SHT31;58088;51.186;17.130;2023-04-01T00:01:45;11.08;73.10
70534;SHT31;58088;51.186;17.130;2023-04-01T00:04:11;11.09;73.06
70534;SHT31;58088;51.186;17.130;2023-04-01T00:06:37;11.10;73.00
70534;SHT31;58088;51.186;17.130;2023-04-01T00:09:03;11.12;73.07
70534;SHT31;58088;51.186;17.130;2023-04-01T00:11:32;11.13;73.05
70534;SHT31;58088;51.186;17.130;2023-04-01T00:13:59;11.13;73.15
70534;SHT31;58088;51.186;17.130;2023-04-01T00:16:25;11.13;73.26
70534;SHT31;58088;51.186;17.130;2023-04-01T00:18:51;11.14;73.26
70534;SHT31;58088;51.186;17.130;2023-04-01T00:21:18;11.17;73.20
70534;SHT31;58088;51.186;17.130;2023-04-01T00:23:47;11.18;73.16
70534;SHT31;58088;51.186;17.130;2023-04-01T00:26:16;11.19;73.14
70534;SHT31;58088;51.186;17.130;2023-04-01T00:28:46;11.19;73.11
70534;SHT31;58088;51.186;17.130;2023-04-01T00:31:13;11.16;73.23
70534;SHT31;58088;51.186;17.130;2023-04-01T00:33:40;11.15;73.31
70534;SHT31;58088;51.186;17.130;2023-04-01T00:36:10;11.14;73.32
70534;SHT31;58088;51.186;17.130;2023-04-01T00:38:40;11.14;73.46
70534;SHT31;58088;51.186;17.130;2023-04-01T00:41:08;11.14;73.52
70534;SHT31;58088;51.186;17.130;2023-04-01T00:43:49;11.12;73.58
70534;SHT31;58088;51.186;17.130;2023-04-01T00:46:16;11.10;73.59
70534;SHT31;58088;51.186;17.130;2023-04-01T00:48:45;11.10;73.50
70534;SHT31;58088;51.186;17.130;2023-04-01T00:51:17;11.06;73.44
70534;SHT31;58088;51.186;17.130;2023-04-01T00:53:50;11.04;73.28
70534;SHT31;58088;51.186;17.130;2023-04-01T00:56:21;11.07;73.30
70534;SHT31;58088;51.186;17.130;2023-04-01T00:59:12;11.10;73.29
70534;SHT31;58088;51.186;17.130;2023-04-01T01:01:46;11.11;73.21
70534;SHT31;58088;51.186;17.130;2023-04-01T01:04:22;11.11;73.19
70534;SHT31;58088;51.186;17.130;2023-04-01T01:07:00;11.10;73.27
70534;SHT31;58088;51.186;17.130;2023-04-01T01:31:57;11.10;73.80
70534;SHT31;58088;51.186;17.130;2023-04-01T01:37:30;11.06;74.03
70534;SHT31;58088;51.186;17.130;2023-04-01T01:39:59;11.06;74.08
70534;SHT31;58088;51.186;17.130;2023-04-01T01:42:35;11.07;74.08
70534;SHT31;58088;51.186;17.130;2023-04-01T01:45:08;11.07;74.23
70534;SHT31;58088;51.186;17.130;2023-04-01T01:47:38;11.08;74.24
70534;SHT31;58088;51.186;17.130;2023-04-01T01:50:07;11.07;74.26
70534;SHT31;58088;51.186;17.130;2023-04-01T01:52:35;11.07;74.21
70534;SHT31;58088;51.186;17.130;2023-04-01T01:55:02;11.10;74.19
70534;SHT31;58088;51.186;17.130;2023-04-01T01:57:40;11.10;74.21
70534;SHT31;58088;51.186;17.130;2023-04-01T02:00:14;11.10;74.25
70534;SHT31;58088;51.186;17.130;2023-04-01T02:02:44;11.10;74.43
70534;SHT31;58088;51.186;17.130;2023-04-01T02:05:20;11.13;74.42
70534;SHT31;58088;51.186;17.130;2023-04-01T02:07:54;11.11;74.33
70534;SHT31;58088;51.186;17.130;2023-04-01T02:10:40;11.11;74.40
70534;SHT31;58088;51.186;17.130;2023-04-01T02:13:26;11.11;74.38
70534;SHT31;58088;51.186;17.130;2023-04-01T02:16:27;11.12;74.52
70534;SHT31;58088;51.186;17.130;2023-04-01T02:19:03;11.14;74.50
70534;SHT31;58088;51.186;17.130;2023-04-01T02:21:36;11.13;74.48
70534;SHT31;58088;51.186;17.130;2023-04-01T02:24:06;11.16;74.52
70534;SHT31;58088;51.186;17.130;2023-04-01T02:26:38;11.16;74.54
70534;SHT31;58088;51.186;17.130;2023-04-01T02:29:05;11.16;74.56
70534;SHT31;58088;51.186;17.130;2023-04-01T02:31:35;11.17;74.62
70534;SHT31;58088;51.186;17.130;2023-04-01T02:34:02;11.18;74.68
70534;SHT31;58088;51.186;17.130;2023-04-01T02:36:29;11.20;74.70
70534;SHT31;58088;51.186;17.130;2023-04-01T02:38:57;11.18;74.72
70534;SHT31;58088;51.186;17.130;2023-04-01T02:41:28;11.18;74.88
70534;SHT31;58088;51.186;17.130;2023-04-01T02:43:54;11.21;74.90
70534;SHT31;58088;51.186;17.130;2023-04-01T02:46:22;11.23;74.92
70534;SHT31;58088;51.186;17.130;2023-04-01T02:48:48;11.26;74.90
70534;SHT31;58088;51.186;17.130;2023-04-01T02:51:14;11.30;74.88
70534;SHT31;58088;51.186;17.130;2023-04-01T02:53:41;11.32;74.89
70534;SHT31;58088;51.186;17.130;2023-04-01T02:56:07;11.35;74.80
70534;SHT31;58088;51.186;17.130;2023-04-01T02:58:33;11.35;74.76
70534;SHT31;58088;51.186;17.130;2023-04-01T03:01:00;11.37;74.70
70534;SHT31;58088;51.186;17.130;2023-04-01T03:03:26;11.39;74.70
70534;SHT31;58088;51.186;17.130;2023-04-01T03:05:52;11.41;74.69
70534;SHT31;58088;51.186;17.130;2023-04-01T03:08:21;11.41;74.61
70534;SHT31;58088;51.186;17.130;2023-04-01T03:10:47;11.41;74.60
70534;SHT31;58088;51.186;17.130;2023-04-01T03:13:14;11.41;74.49
70534;SHT31;58088;51.186;17.130;2023-04-01T03:15:40;11.35;74.38
70534;SHT31;58088;51.186;17.130;2023-04-01T03:18:07;11.28;74.39
70534;SHT31;58088;51.186;17.130;2023-04-01T03:20:33;11.21;74.37
70534;SHT31;58088;51.186;17.130;2023-04-01T03:23:00;11.19;74.39
70534;SHT31;58088;51.186;17.130;2023-04-01T03:25:26;11.15;74.40
70534;SHT31;58088;51.186;17.130;2023-04-01T03:27:54;11.13;74.46
70534;SHT31;58088;51.186;17.130;2023-04-01T03:30:20;11.12;74.58
70534;SHT31;58088;51.186;17.130;2023-04-01T03:32:48;11.12;74.64
70534;SHT31;58088;51.186;17.130;2023-04-01T03:35:14;11.13;74.62
70534;SHT31;58088;51.186;17.130;2023-04-01T03:37:41;11.12;74.62
70534;SHT31;58088;51.186;17.130;2023-04-01T03:40:08;11.12;74.75
70534;SHT31;58088;51.186;17.130;2023-04-01T03:42:36;11.15;74.86
70534;SHT31;58088;51.186;17.130;2023-04-01T03:45:03;11.15;74.90
70534;SHT31;58088;51.186;17.130;2023-04-01T03:47:30;11.16;74.85
70534;SHT31;58088;51.186;17.130;2023-04-01T03:49:56;11.16;74.91
70534;SHT31;58088;51.186;17.130;2023-04-01T03:52:23;11.19;75.00
70534;SHT31;58088;51.186;17.130;2023-04-01T03:54:49;11.19;75.04
70534;SHT31;58088;51.186;17.130;2023-04-01T03:57:15;11.20;75.17
70534;SHT31;58088;51.186;17.130;2023-04-01T03:59:42;11.20;75.13
70534;SHT31;58088;51.186;17.130;2023-04-01T04:02:08;11.23;75.28
70534;SHT31;58088;51.186;17.130;2023-04-01T04:04:35;11.24;75.30
70534;SHT31;58088;51.186;17.130;2023-04-01T04:07:01;11.24;75.30
70534;SHT31;58088;51.186;17.130;2023-04-01T04:09:30;11.24;75.33
70534;SHT31;58088;51.186;17.130;2023-04-01T04:11:57;11.23;75.33
70534;SHT31;58088;51.186;17.130;2023-04-01T04:14:23;11.21;75.38
70534;SHT31;58088;51.186;17.130;2023-04-01T04:16:50;11.21;75.43
70534;SHT31;58088;51.186;17.130;2023-04-01T04:19:16;11.18;75.50
70534;SHT31;58088;51.186;17.130;2023-04-01T04:21:43;11.17;75.65
70534;SHT31;58088;51.186;17.130;2023-04-01T04:24:09;11.17;75.83
70534;SHT31;58088;51.186;17.130;2023-04-01T04:26:54;11.16;75.88
70534;SHT31;58088;51.186;17.130;2023-04-01T04:29:20;11.19;75.95
70534;SHT31;58088;51.186;17.130;2023-04-01T04:31:48;11.17;75.89
70534;SHT31;58088;51.186;17.130;2023-04-01T04:34:15;11.14;75.87
70534;SHT31;58088;51.186;17.130;2023-04-01T04:36:41;11.13;75.99
70534;SHT31;58088;51.186;17.130;2023-04-01T04:39:07;11.12;76.07
70534;SHT31;58088;51.186;17.130;2023-04-01T04:41:36;11.10;76.12
70534;SHT31;58088;51.186;17.130;2023-04-01T04:44:04;11.09;76.20
70534;SHT31;58088;51.186;17.130;2023-04-01T04:46:31;11.08;76.26
70534;SHT31;58088;51.186;17.130;2023-04-01T04:49:05;11.08;76.47
70534;SHT31;58088;51.186;17.130;2023-04-01T04:51:32;11.10;76.53
70534;SHT31;58088;51.186;17.130;2023-04-01T04:54:02;11.09;76.51
70534;SHT31;58088;51.186;17.130;2023-04-01T04:56:41;11.08;76.60
70534;SHT31;58088;51.186;17.130;2023-04-01T04:59:09;11.08;76.61
70534;SHT31;58088;51.186;17.130;2023-04-01T05:01:58;11.07;76.70
70534;SHT31;58088;51.186;17.130;2023-04-01T05:04:24;11.07;76.79
70534;SHT31;58088;51.186;17.130;2023-04-01T05:06:50;11.06;76.83
70534;SHT31;58088;51.186;17.130;2023-04-01T05:09:17;11.05;76.89
70534;SHT31;58088;51.186;17.130;2023-04-01T05:11:43;11.03;76.87
70534;SHT31;58088;51.186;17.130;2023-04-01T05:14:14;11.05;76.93
70534;SHT31;58088;51.186;17.130;2023-04-01T05:16:44;11.05;76.94
70534;SHT31;58088;51.186;17.130;2023-04-01T05:19:10;11.04;77.05
70534;SHT31;58088;51.186;17.130;2023-04-01T05:21:37;11.07;77.13
70534;SHT31;58088;51.186;17.130;2023-04-01T05:24:03;11.10;77.14
70534;SHT31;58088;51.186;17.130;2023-04-01T05:26:35;11.13;77.23
70534;SHT31;58088;51.186;17.130;2023-04-01T05:29:03;11.14;77.25
70534;SHT31;58088;51.186;17.130;2023-04-01T05:31:30;11.16;77.25
70534;SHT31;58088;51.186;17.130;2023-04-01T05:33:57;11.18;77.21
70534;SHT31;58088;51.186;17.130;2023-04-01T05:36:23;11.19;77.19
70534;SHT31;58088;51.186;17.130;2023-04-01T05:38:50;11.18;77.30
70534;SHT31;58088;51.186;17.130;2023-04-01T05:41:17;11.18;77.34
70534;SHT31;58088;51.186;17.130;2023-04-01T05:43:44;11.20;77.38
70534;SHT31;58088;51.186;17.130;2023-04-01T05:46:31;11.22;77.49
70534;SHT31;58088;51.186;17.130;2023-04-01T05:49:30;11.24;77.47
70534;SHT31;58088;51.186;17.130;2023-04-01T05:51:59;11.27;77.43
70534;SHT31;58088;51.186;17.130;2023-04-01T05:54:26;11.28;77.46
70534;SHT31;58088;51.186;17.130;2023-04-01T05:56:52;11.30;77.55
70534;SHT31;58088;51.186;17.130;2023-04-01T05:59:19;11.30;77.58
70534;SHT31;58088;51.186;17.130;2023-04-01T06:01:45;11.30;77.56
70534;SHT31;58088;51.186;17.130;2023-04-01T06:04:15;11.31;77.66
70534;SHT31;58088;51.186;17.130;2023-04-01T06:06:44;11.33;77.70
70534;SHT31;58088;51.186;17.130;2023-04-01T06:09:18;11.36;77.69
70534;SHT31;58088;51.186;17.130;2023-04-01T06:14:48;11.38;77.68
70534;SHT31;58088;51.186;17.130;2023-04-01T06:17:30;11.39;77.74
70534;SHT31;58088;51.186;17.130;2023-04-01T06:25:53;11.42;77.80
70534;SHT31;58088;51.186;17.130;2023-04-01T06:28:39;11.44;77.78
70534;SHT31;58088;51.186;17.130;2023-04-01T06:42:29;11.56;77.84
70534;SHT31;58088;51.186;17.130;2023-04-01T06:52:50;11.54;77.83
70534;SHT31;58088;51.186;17.130;2023-04-01T06:56:07;11.55;77.81
70534;SHT31;58088;51.186;17.130;2023-04-01T06:58:56;11.52;77.88
70534;SHT31;58088;51.186;17.130;2023-04-01T07:01:41;11.52;77.97
70534;SHT31;58088;51.186;17.130;2023-04-01T07:07:00;11.58;78.11
70534;SHT31;58088;51.186;17.130;2023-04-01T07:09:51;11.61;78.20
70534;SHT31;58088;51.186;17.130;2023-04-01T07:12:33;11.67;78.21
70534;SHT31;58088;51.186;17.130;2023-04-01T07:15:36;11.68;78.18
70534;SHT31;58088;51.186;17.130;2023-04-01T07:18:25;11.66;78.13
70534;SHT31;58088;51.186;17.130;2023-04-01T07:21:22;11.68;78.25
70534;SHT31;58088;51.186;17.130;2023-04-01T07:23:56;11.71;78.38
70534;SHT31;58088;51.186;17.130;2023-04-01T07:26:38;11.74;78.52
70534;SHT31;58088;51.186;17.130;2023-04-01T07:29:11;11.79;78.51
70534;SHT31;58088;51.186;17.130;2023-04-01T07:32:05;11.81;78.46
70534;SHT31;58088;51.186;17.130;2023-04-01T07:37:29;11.83;78.34
70534;SHT31;58088;51.186;17.130;2023-04-01T07:40:13;11.85;78.37
70534;SHT31;58088;51.186;17.130;2023-04-01T07:43:05;11.85;78.37
70534;SHT31;58088;51.186;17.130;2023-04-01T07:45:48;11.86;78.37
70534;SHT31;58088;51.186;17.130;2023-04-01T07:54:16;11.86;78.40
70534;SHT31;58088;51.186;17.130;2023-04-01T07:56:59;11.89;78.44
70534;SHT31;58088;51.186;17.130;2023-04-01T08:02:58;11.98;78.36
70534;SHT31;58088;51.186;17.130;2023-04-01T08:05:59;12.00;78.42
70534;SHT31;58088;51.186;17.130;2023-04-01T08:08:50;12.02;78.39
70534;SHT31;58088;51.186;17.130;2023-04-01T08:12:34;12.03;78.54
70534;SHT31;58088;51.186;17.130;2023-04-01T08:15:49;12.06;78.49
70534;SHT31;58088;51.186;17.130;2023-04-01T08:21:42;12.09;78.32
70534;SHT31;58088;51.186;17.130;2023-04-01T08:24:28;12.06;78.33
70534;SHT31;58088;51.186;17.130;2023-04-01T08:26:59;12.09;78.39
70534;SHT31;58088;51.186;17.130;2023-04-01T08:32:09;12.09;78.28
70534;SHT31;58088;51.186;17.130;2023-04-01T08:35:11;12.11;78.30
70534;SHT31;58088;51.186;17.130;2023-04-01T08:38:36;12.17;78.27
70534;SHT31;58088;51.186;17.130;2023-04-01T08:41:34;12.22;78.23
70534;SHT31;58088;51.186;17.130;2023-04-01T08:56:18;12.42;78.15
70534;SHT31;58088;51.186;17.130;2023-04-01T09:01:51;12.44;78.10
70534;SHT31;58088;51.186;17.130;2023-04-01T09:14:40;12.66;78.23
70534;SHT31;58088;51.186;17.130;2023-04-01T09:39:51;12.53;77.35
70534;SHT31;58088;51.186;17.130;2023-04-01T09:42:29;12.45;77.11
70534;SHT31;58088;51.186;17.130;2023-04-01T09:59:39;12.12;77.33
70534;SHT31;58088;51.186;17.130;2023-04-01T10:11:21;12.15;77.60
70534;SHT31;58088;51.186;17.130;2023-04-01T10:14:42;12.15;77.66
70534;SHT31;58088;51.186;17.130;2023-04-01T10:17:54;12.11;77.74
70534;SHT31;58088;51.186;17.130;2023-04-01T10:20:37;12.14;77.85
70534;SHT31;58088;51.186;17.130;2023-04-01T10:23:53;12.11;78.05
70534;SHT31;58088;51.186;17.130;2023-04-01T10:29:37;12.15;78.17
70534;SHT31;58088;51.186;17.130;2023-04-01T10:52:01;12.21;78.17
70534;SHT31;58088;51.186;17.130;2023-04-01T11:12:15;12.64;78.42
70534;SHT31;58088;51.186;17.130;2023-04-01T11:24:54;12.90;78.28
70534;SHT31;58088;51.186;17.130;2023-04-01T11:58:45;13.09;77.56
70534;SHT31;58088;51.186;17.130;2023-04-01T12:04:36;13.13;77.70
70534;SHT31;58088;51.186;17.130;2023-04-01T12:08:04;13.14;77.56
70534;SHT31;58088;51.186;17.130;2023-04-01T12:18:59;13.20;77.41
70534;SHT31;58088;51.186;17.130;2023-04-01T12:22:03;13.23;77.46
70534;SHT31;58088;51.186;17.130;2023-04-01T12:27:41;13.41;77.73
70534;SHT31;58088;51.186;17.130;2023-04-01T12:30:32;13.50;77.57
70534;SHT31;58088;51.186;17.130;2023-04-01T12:34:00;13.53;77.39
70534;SHT31;58088;51.186;17.130;2023-04-01T12:39:56;13.73;77.30
70534;SHT31;58088;51.186;17.130;2023-04-01T12:43:05;13.83;77.15
70534;SHT31;58088;51.186;17.130;2023-04-01T12:55:01;14.21;76.33
70534;SHT31;58088;51.186;17.130;2023-04-01T12:58:13;14.32;76.19
70534;SHT31;58088;51.186;17.130;2023-04-01T13:21:09;14.99;74.47
70534;SHT31;58088;51.186;17.130;2023-04-01T13:26:55;15.05;74.17
70534;SHT31;58088;51.186;17.130;2023-04-01T13:32:50;15.07;73.84
70534;SHT31;58088;51.186;17.130;2023-04-01T13:41:25;15.05;73.65
70534;SHT31;58088;51.186;17.130;2023-04-01T13:44:18;15.05;73.58
70534;SHT31;58088;51.186;17.130;2023-04-01T13:56:11;14.90;73.44
70534;SHT31;58088;51.186;17.130;2023-04-01T14:01:41;14.62;72.95
70534;SHT31;58088;51.186;17.130;2023-04-01T14:04:22;14.48;73.12
70534;SHT31;58088;51.186;17.130;2023-04-01T14:10:31;14.28;73.03
70534;SHT31;58088;51.186;17.130;2023-04-01T14:16:44;14.12;73.50
70534;SHT31;58088;51.186;17.130;2023-04-01T14:22:13;14.14;73.86
70534;SHT31;58088;51.186;17.130;2023-04-01T14:31:48;14.27;74.17
70534;SHT31;58088;51.186;17.130;2023-04-01T14:39:26;14.23;73.89
70534;SHT31;58088;51.186;17.130;2023-04-01T14:42:56;14.22;73.99
70534;SHT31;58088;51.186;17.130;2023-04-01T14:48:32;14.12;74.20
70534;SHT31;58088;51.186;17.130;2023-04-01T14:51:33;14.12;74.37
70534;SHT31;58088;51.186;17.130;2023-04-01T15:02:38;14.02;73.18
70534;SHT31;58088;51.186;17.130;2023-04-01T15:05:16;13.98;73.50
70534;SHT31;58088;51.186;17.130;2023-04-01T15:11:06;13.89;73.47
70534;SHT31;58088;51.186;17.130;2023-04-01T15:22:15;13.66;73.93
70534;SHT31;58088;51.186;17.130;2023-04-01T15:28:03;13.55;74.21
70534;SHT31;58088;51.186;17.130;2023-04-01T15:36:58;13.33;74.48
70534;SHT31;58088;51.186;17.130;2023-04-01T15:48:59;13.27;74.79
70534;SHT31;58088;51.186;17.130;2023-04-01T15:58:01;13.13;74.87
70534;SHT31;58088;51.186;17.130;2023-04-01T16:09:25;13.17;74.92
70534;SHT31;58088;51.186;17.130;2023-04-01T16:23:26;13.22;74.80
70534;SHT31;58088;51.186;17.130;2023-04-01T16:35:45;13.16;74.81
70534;SHT31;58088;51.186;17.130;2023-04-01T16:41:01;13.06;74.82
70534;SHT31;58088;51.186;17.130;2023-04-01T16:46:27;13.02;74.90
70534;SHT31;58088;51.186;17.130;2023-04-01T16:54:30;12.90;74.99
70534;SHT31;58088;51.186;17.130;2023-04-01T17:06:19;12.66;75.73
70534;SHT31;58088;51.186;17.130;2023-04-01T17:09:19;12.56;75.96
70534;SHT31;58088;51.186;17.130;2023-04-01T17:12:18;12.50;76.16
70534;SHT31;58088;51.186;17.130;2023-04-01T17:18:11;12.36;76.29
70534;SHT31;58088;51.186;17.130;2023-04-01T17:21:10;12.31;76.19
70534;SHT31;58088;51.186;17.130;2023-04-01T17:23:57;12.24;76.18
70534;SHT31;58088;51.186;17.130;2023-04-01T17:41:05;12.00;76.29
70534;SHT31;58088;51.186;17.130;2023-04-01T17:44:03;11.97;76.42
70534;SHT31;58088;51.186;17.130;2023-04-01T17:50:24;11.85;76.47
70534;SHT31;58088;51.186;17.130;2023-04-01T17:53:16;11.80;76.52
70534;SHT31;58088;51.186;17.130;2023-04-01T17:59:35;11.65;76.82
70534;SHT31;58088;51.186;17.130;2023-04-01T18:05:17;11.57;76.93
70534;SHT31;58088;51.186;17.130;2023-04-01T18:14:50;11.46;76.94
70534;SHT31;58088;51.186;17.130;2023-04-01T18:29:38;11.25;76.76
70534;SHT31;58088;51.186;17.130;2023-04-01T18:35:53;11.25;76.79
70534;SHT31;58088;51.186;17.130;2023-04-01T18:38:45;11.24;76.72
70534;SHT31;58088;51.186;17.130;2023-04-01T18:41:22;11.23;76.65
70534;SHT31;58088;51.186;17.130;2023-04-01T18:44:11;11.19;76.70
70534;SHT31;58088;51.186;17.130;2023-04-01T18:47:22;11.19;76.74
70534;SHT31;58088;51.186;17.130;2023-04-01T18:50:21;11.19;76.70
70534;SHT31;58088;51.186;17.130;2023-04-01T18:53:30;11.16;76.69
70534;SHT31;58088;51.186;17.130;2023-04-01T18:56:10;11.14;76.72
70534;SHT31;58088;51.186;17.130;2023-04-01T18:58:59;11.14;76.77
70534;SHT31;58088;51.186;17.130;2023-04-01T19:01:51;11.11;76.78
70534;SHT31;58088;51.186;17.130;2023-04-01T19:04:33;11.14;76.74
70534;SHT31;58088;51.186;17.130;2023-04-01T19:07:34;11.16;76.62
70534;SHT31;58088;51.186;17.130;2023-04-01T19:19:47;11.02;76.90
70534;SHT31;58088;51.186;17.130;2023-04-01T19:22:39;10.99;76.91
70534;SHT31;58088;51.186;17.130;2023-04-01T19:25:55;10.98;76.92
70534;SHT31;58088;51.186;17.130;2023-04-01T19:28:44;10.96;77.00
70534;SHT31;58088;51.186;17.130;2023-04-01T19:31:56;10.97;77.00
70534;SHT31;58088;51.186;17.130;2023-04-01T19:38:08;11.01;77.03
70534;SHT31;58088;51.186;17.130;2023-04-01T19:46:58;11.01;77.01
70534;SHT31;58088;51.186;17.130;2023-04-01T19:50:00;11.01;77.06
70534;SHT31;58088;51.186;17.130;2023-04-01T19:52:42;11.07;77.02
70534;SHT31;58088;51.186;17.130;2023-04-01T19:58:20;11.09;76.90
70534;SHT31;58088;51.186;17.130;2023-04-01T20:00:58;11.07;76.87
70534;SHT31;58088;51.186;17.130;2023-04-01T20:06:24;11.08;76.84
70534;SHT31;58088;51.186;17.130;2023-04-01T20:14:48;10.97;76.90
70534;SHT31;58088;51.186;17.130;2023-04-01T20:20:15;10.94;77.04
70534;SHT31;58088;51.186;17.130;2023-04-01T20:25:46;10.88;77.04
70534;SHT31;58088;51.186;17.130;2023-04-01T20:29:04;10.87;77.13
70534;SHT31;58088;51.186;17.130;2023-04-01T20:31:41;10.85;77.10
70534;SHT31;58088;51.186;17.130;2023-04-01T20:37:32;10.81;77.04
70534;SHT31;58088;51.186;17.130;2023-04-01T20:40:45;10.77;77.11
70534;SHT31;58088;51.186;17.130;2023-04-01T20:52:02;10.72;77.16
70534;SHT31;58088;51.186;17.130;2023-04-01T20:57:44;10.57;77.05
70534;SHT31;58088;51.186;17.130;2023-04-01T21:03:25;10.47;77.03
70534;SHT31;58088;51.186;17.130;2023-04-01T21:12:06;10.43;77.17
70534;SHT31;58088;51.186;17.130;2023-04-01T21:15:02;10.43;77.08
70534;SHT31;58088;51.186;17.130;2023-04-01T21:20:33;10.29;77.05
70534;SHT31;58088;51.186;17.130;2023-04-01T21:23:43;10.18;77.22
70534;SHT31;58088;51.186;17.130;2023-04-01T21:29:33;10.09;77.50
70534;SHT31;58088;51.186;17.130;2023-04-01T21:38:04;9.98;77.54
70534;SHT31;58088;51.186;17.130;2023-04-01T22:02:23;9.79;77.70
70534;SHT31;58088;51.186;17.130;2023-04-01T22:05:25;9.81;77.66
70534;SHT31;58088;51.186;17.130;2023-04-01T22:11:02;9.79;77.60
70534;SHT31;58088;51.186;17.130;2023-04-01T22:14:05;9.74;77.68
70534;SHT31;58088;51.186;17.130;2023-04-01T22:17:00;9.73;77.70
70534;SHT31;58088;51.186;17.130;2023-04-01T22:19:45;9.75;77.72
70534;SHT31;58088;51.186;17.130;2023-04-01T22:31:32;9.68;77.82
70534;SHT31;58088;51.186;17.130;2023-04-01T22:37:40;9.68;77.87
70534;SHT31;58088;51.186;17.130;2023-04-01T22:43:43;9.67;77.87
70534;SHT31;58088;51.186;17.130;2023-04-01T22:55:08;9.57;77.68
70534;SHT31;58088;51.186;17.130;2023-04-01T23:00:39;9.48;77.60
70534;SHT31;58088;51.186;17.130;2023-04-01T23:03:13;9.45;77.65
70534;SHT31;58088;51.186;17.130;2023-04-01T23:05:59;9.42;77.81
70534;SHT31;58088;51.186;17.130;2023-04-01T23:11:22;9.35;77.75
70534;SHT31;58088;51.186;17.130;2023-04-01T23:14:54;9.27;77.58
70534;SHT31;58088;51.186;17.130;2023-04-01T23:23:28;9.02;77.46
70534;SHT31;58088;51.186;17.130;2023-04-01T23:26:21;8.90;77.43
70534;SHT31;58088;51.186;17.130;2023-04-01T23:29:02;8.82;77.45
70534;SHT31;58088;51.186;17.130;2023-04-01T23:36:41;8.75;77.57
70534;SHT31;58088;51.186;17.130;2023-04-01T23:39:22;8.69;77.59
70534;SHT31;58088;51.186;17.130;2023-04-01T23:42:02;8.65;77.56
70534;SHT31;58088;51.186;17.130;2023-04-01T23:44:38;8.60;77.60
70534;SHT31;58088;51.186;17.130;2023-04-01T23:47:06;8.53;77.69
70534;SHT31;58088;51.186;17.130;2023-04-01T23:49:51;8.49;77.83
70534;SHT31;58088;51.186;17.130;2023-04-01T23:52:28;8.47;78.02
70534;SHT31;58088;51.186;17.130;2023-04-01T23:57:43;8.45;78.09
